createdAt,value
2022-11-16T00:01:01.320Z,9.40
2022-11-16T00:03:30.050Z,9.40
2022-11-16T00:05:59.606Z,9.30
2022-11-16T00:08:30.985Z,9.40
2022-11-16T00:11:06.119Z,9.40
2022-11-16T00:13:34.669Z,9.40
2022-11-16T00:16:03.320Z,9.40
2022-11-16T00:18:32.520Z,9.40
2022-11-16T00:21:01.273Z,9.40
2022-11-16T00:23:31.179Z,9.40
2022-11-16T00:26:05.970Z,9.40
2022-11-16T00:28:35.202Z,9.40
2022-11-16T00:31:06.694Z,9.40
2022-11-16T00:33:36.040Z,9.50
2022-11-16T00:36:06.027Z,9.50
2022-11-16T00:38:36.560Z,9.40
2022-11-16T00:41:05.196Z,9.40
2022-11-16T00:43:33.967Z,9.40
2022-11-16T00:46:02.799Z,9.40
2022-11-16T00:48:31.685Z,9.40
2022-11-16T00:51:00.310Z,9.30
2022-11-16T00:53:28.800Z,9.30
2022-11-16T00:55:58.730Z,9.20
2022-11-16T00:58:27.294Z,9.20
2022-11-16T01:00:55.771Z,9.20
2022-11-16T01:03:24.489Z,9.10
2022-11-16T01:05:53.047Z,9.10
2022-11-16T01:08:21.579Z,9.00
2022-11-16T01:10:50.069Z,9.00
2022-11-16T01:13:18.941Z,9.00
2022-11-16T01:15:49.409Z,9.00
2022-11-16T01:18:17.940Z,8.90
2022-11-16T01:20:46.389Z,8.90
2022-11-16T01:23:14.910Z,8.90
2022-11-16T01:25:43.359Z,8.90
2022-11-16T01:28:11.871Z,8.90
2022-11-16T01:30:41.761Z,8.90
2022-11-16T01:33:10.189Z,8.90
2022-11-16T01:35:38.637Z,8.90
2022-11-16T01:38:07.145Z,8.90
2022-11-16T01:40:35.612Z,8.90
2022-11-16T01:43:04.099Z,8.90
2022-11-16T01:45:38.791Z,8.90
2022-11-16T01:48:09.679Z,8.90
2022-11-16T01:50:39.680Z,8.90
2022-11-16T01:53:10.328Z,8.90
2022-11-16T01:55:39.722Z,8.90
2022-11-16T01:58:08.741Z,8.90
2022-11-16T02:00:37.228Z,8.90
2022-11-16T02:03:05.817Z,8.90
2022-11-16T02:05:48.482Z,8.90
2022-11-16T02:08:49.063Z,8.90
2022-11-16T02:11:33.496Z,8.90
2022-11-16T02:14:11.010Z,8.90
2022-11-16T02:16:51.040Z,8.90
2022-11-16T02:19:55.057Z,8.90
2022-11-16T02:22:38.899Z,8.80
2022-11-16T02:25:12.967Z,8.90
2022-11-16T02:28:04.456Z,8.90
2022-11-16T02:30:35.878Z,8.90
2022-11-16T02:33:10.376Z,8.90
2022-11-16T02:35:43.411Z,8.80
2022-11-16T02:38:16.267Z,8.80
2022-11-16T02:40:47.669Z,8.80
2022-11-16T02:43:21.276Z,8.80
2022-11-16T02:45:53.219Z,8.80
2022-11-16T02:48:27.457Z,8.80
2022-11-16T02:50:57.288Z,8.80
2022-11-16T02:53:26.929Z,8.80
2022-11-16T02:55:56.550Z,8.80
2022-11-16T02:58:27.289Z,8.90
2022-11-16T03:01:02.566Z,8.90
2022-11-16T03:03:39.098Z,8.80
2022-11-16T03:06:11.740Z,8.80
2022-11-16T03:08:44.141Z,8.80
2022-11-16T03:11:31.375Z,8.80
2022-11-16T03:14:03.850Z,8.80
2022-11-16T03:16:36.760Z,8.80
2022-11-16T03:19:06.939Z,8.80
2022-11-16T03:21:41.122Z,8.70
2022-11-16T03:24:10.010Z,8.80
2022-11-16T03:26:46.008Z,8.70
2022-11-16T03:29:22.917Z,8.70
2022-11-16T03:31:57.928Z,8.80
2022-11-16T03:34:31.098Z,8.80
2022-11-16T03:37:02.428Z,8.80
2022-11-16T03:39:34.098Z,8.80
2022-11-16T03:42:07.428Z,8.80
2022-11-16T03:44:37.998Z,8.70
2022-11-16T03:47:08.088Z,8.70
2022-11-16T03:49:36.539Z,8.70
2022-11-16T03:52:05.628Z,8.70
2022-11-16T03:54:34.118Z,8.70
2022-11-16T03:57:02.758Z,8.60
2022-11-16T03:59:31.278Z,8.60
2022-11-16T04:01:59.746Z,8.60
2022-11-16T04:04:47.506Z,8.60
2022-11-16T04:07:33.402Z,8.60
2022-11-16T04:10:19.607Z,8.60
2022-11-16T04:13:05.758Z,8.60
2022-11-16T04:15:51.978Z,8.60
2022-11-16T04:18:38.291Z,8.60
2022-11-16T04:21:33.547Z,8.50
2022-11-16T04:24:14.047Z,8.50
2022-11-16T04:27:02.351Z,8.50
2022-11-16T04:29:31.586Z,8.50
2022-11-16T04:32:17.408Z,8.50
2022-11-16T04:35:03.713Z,8.50
2022-11-16T04:37:52.725Z,8.50
2022-11-16T04:40:22.759Z,8.50
2022-11-16T04:42:55.105Z,8.50
2022-11-16T04:45:41.897Z,8.50
2022-11-16T04:48:11.407Z,8.50
2022-11-16T04:50:40.258Z,8.50
2022-11-16T04:53:10.947Z,8.50
2022-11-16T04:55:39.469Z,8.50
2022-11-16T04:58:08.459Z,8.50
2022-11-16T05:00:36.931Z,8.50
2022-11-16T05:03:06.133Z,8.50
2022-11-16T05:05:34.638Z,8.50
2022-11-16T05:08:03.129Z,8.50
2022-11-16T05:10:33.028Z,8.50
2022-11-16T05:13:01.474Z,8.50
2022-11-16T05:15:30.009Z,8.50
2022-11-16T05:17:58.468Z,8.50
2022-11-16T05:20:44.360Z,8.50
2022-11-16T05:23:26.612Z,8.50
2022-11-16T05:25:56.722Z,8.50
2022-11-16T05:28:25.281Z,8.50
2022-11-16T05:30:53.730Z,8.50
2022-11-16T05:33:22.840Z,8.50
2022-11-16T05:35:52.009Z,8.50
2022-11-16T05:38:20.703Z,8.50
2022-11-16T05:40:49.219Z,8.50
2022-11-16T05:43:19.230Z,8.50
2022-11-16T05:45:48.449Z,8.50
2022-11-16T05:48:16.973Z,8.50
2022-11-16T05:50:45.557Z,8.50
2022-11-16T05:53:14.000Z,8.50
2022-11-16T05:55:42.529Z,8.50
2022-11-16T05:58:11.010Z,8.50
2022-11-16T06:00:40.921Z,8.50
2022-11-16T06:03:09.538Z,8.50
2022-11-16T06:05:40.675Z,8.50
2022-11-16T06:08:09.708Z,8.50
2022-11-16T06:10:38.238Z,8.50
2022-11-16T06:13:06.710Z,8.50
2022-11-16T06:15:38.712Z,8.50
2022-11-16T06:18:09.201Z,8.60
2022-11-16T06:20:40.559Z,8.60
2022-11-16T06:23:09.033Z,8.60
2022-11-16T06:25:40.264Z,8.60
2022-11-16T06:28:09.100Z,8.60
2022-11-16T06:30:38.263Z,8.60
2022-11-16T06:33:08.278Z,8.60
2022-11-16T06:35:36.800Z,8.60
2022-11-16T06:38:05.280Z,8.60
2022-11-16T06:40:34.113Z,8.60
2022-11-16T06:43:02.622Z,8.50
2022-11-16T06:45:31.185Z,8.60
2022-11-16T06:47:59.671Z,8.60
2022-11-16T06:50:29.626Z,8.60
2022-11-16T06:53:00.912Z,8.50
2022-11-16T06:55:29.447Z,8.50
2022-11-16T06:57:58.047Z,8.50
2022-11-16T07:00:26.558Z,8.50
2022-11-16T07:02:55.200Z,8.50
2022-11-16T07:05:23.650Z,8.50
2022-11-16T07:07:57.200Z,8.50
2022-11-16T07:10:25.961Z,8.50
2022-11-16T07:12:54.520Z,8.50
2022-11-16T07:15:23.261Z,8.50
2022-11-16T07:17:51.790Z,8.50
2022-11-16T07:20:21.076Z,8.50
2022-11-16T07:22:49.620Z,8.50
2022-11-16T07:25:19.659Z,8.50
2022-11-16T07:27:48.319Z,8.50
2022-11-16T07:30:17.090Z,8.50
2022-11-16T07:32:45.620Z,8.50
2022-11-16T07:35:14.139Z,8.50
2022-11-16T07:37:42.679Z,8.40
2022-11-16T07:40:11.960Z,8.40
2022-11-16T07:42:42.250Z,8.50
2022-11-16T07:45:12.168Z,8.50
2022-11-16T07:47:40.700Z,8.50
2022-11-16T07:50:11.034Z,8.50
2022-11-16T07:52:39.762Z,8.50
2022-11-16T07:55:08.632Z,8.50
2022-11-16T07:57:37.090Z,8.50
2022-11-16T08:00:08.475Z,8.50
2022-11-16T08:02:36.939Z,8.50
2022-11-16T08:05:05.945Z,8.50
2022-11-16T08:07:35.768Z,8.50
2022-11-16T08:10:04.520Z,8.50
2022-11-16T08:12:32.974Z,8.50
2022-11-16T08:15:01.778Z,8.50
2022-11-16T08:17:31.812Z,8.50
2022-11-16T08:20:00.224Z,8.50
2022-11-16T08:22:28.670Z,8.50
2022-11-16T08:24:57.169Z,8.60
2022-11-16T08:27:25.655Z,8.60
2022-11-16T08:29:54.210Z,8.60
2022-11-16T08:32:22.751Z,8.60
2022-11-16T08:34:52.761Z,8.60
2022-11-16T08:37:21.212Z,8.70
2022-11-16T08:39:49.720Z,8.70
2022-11-16T08:42:18.229Z,8.70
2022-11-16T08:44:46.752Z,8.70
2022-11-16T08:47:15.317Z,8.70
2022-11-16T08:49:48.300Z,8.70
2022-11-16T08:52:20.662Z,8.70
2022-11-16T08:54:49.108Z,8.70
2022-11-16T08:57:17.643Z,8.70
2022-11-16T08:59:46.535Z,8.70
2022-11-16T09:02:15.069Z,8.70
2022-11-16T09:04:43.981Z,8.70
2022-11-16T09:07:12.535Z,8.60
2022-11-16T09:09:42.411Z,8.60
2022-11-16T09:12:11.076Z,8.60
2022-11-16T09:14:39.494Z,8.60
2022-11-16T09:17:07.936Z,8.60
2022-11-16T09:19:36.472Z,8.60
2022-11-16T09:22:05.086Z,8.70
2022-11-16T09:24:35.149Z,8.60
2022-11-16T09:27:06.915Z,8.60
2022-11-16T09:29:35.452Z,8.60
2022-11-16T09:32:05.766Z,8.60
2022-11-16T09:34:36.204Z,8.70
2022-11-16T09:37:04.714Z,8.60
2022-11-16T09:39:34.488Z,8.60
2022-11-16T09:42:27.091Z,8.60
2022-11-16T09:45:06.421Z,8.60
2022-11-16T09:47:50.283Z,8.60
2022-11-16T09:50:33.324Z,8.60
2022-11-16T09:53:11.163Z,8.60
2022-11-16T09:55:48.760Z,8.60
2022-11-16T09:58:25.285Z,8.70
2022-11-16T10:00:58.448Z,8.70
2022-11-16T10:03:28.904Z,8.70
2022-11-16T10:06:04.273Z,8.70
2022-11-16T10:08:44.162Z,8.70
2022-11-16T10:11:45.477Z,8.70
2022-11-16T10:14:33.231Z,8.70
2022-11-16T10:17:09.723Z,8.70
2022-11-16T10:19:49.663Z,8.70
2022-11-16T10:22:32.238Z,8.70
2022-11-16T10:25:02.222Z,8.80
2022-11-16T10:27:42.875Z,8.70
2022-11-16T10:30:15.964Z,8.80
2022-11-16T10:32:50.653Z,8.70
2022-11-16T10:35:26.897Z,8.80
2022-11-16T10:37:56.551Z,8.80
2022-11-16T10:40:29.297Z,8.80
2022-11-16T10:43:12.965Z,8.80
2022-11-16T10:45:51.785Z,8.80
2022-11-16T10:48:30.527Z,8.80
2022-11-16T10:51:02.043Z,8.80
2022-11-16T10:53:35.253Z,8.80
2022-11-16T10:56:18.723Z,8.80
2022-11-16T10:58:51.003Z,8.80
2022-11-16T11:01:33.867Z,8.90
2022-11-16T11:04:17.853Z,8.90
2022-11-16T11:06:47.965Z,8.90
2022-11-16T11:09:22.015Z,8.90
2022-11-16T11:12:21.260Z,8.90
2022-11-16T11:15:06.990Z,8.80
2022-11-16T11:17:38.394Z,8.80
2022-11-16T11:20:09.273Z,8.80
2022-11-16T11:22:51.091Z,8.80
2022-11-16T11:25:23.291Z,8.80
2022-11-16T11:27:53.865Z,8.80
2022-11-16T11:30:23.824Z,8.90
2022-11-16T11:32:54.159Z,8.80
2022-11-16T11:35:28.525Z,8.80
2022-11-16T11:38:04.738Z,8.80
2022-11-16T11:40:36.338Z,8.80
2022-11-16T11:43:07.135Z,8.80
2022-11-16T11:45:43.559Z,8.80
2022-11-16T11:48:25.893Z,8.80
2022-11-16T11:50:57.073Z,8.80
2022-11-16T11:53:38.727Z,8.80
2022-11-16T11:56:08.205Z,8.90
2022-11-16T11:58:40.338Z,8.90
2022-11-16T12:01:32.840Z,8.90
2022-11-16T12:04:46.183Z,9.00
2022-11-16T12:07:25.500Z,9.00
2022-11-16T12:09:59.992Z,9.00
2022-11-16T12:12:39.947Z,9.10
2022-11-16T12:15:41.886Z,9.10
2022-11-16T12:18:33.354Z,9.10
2022-11-16T12:21:10.643Z,9.10
2022-11-16T12:23:57.346Z,9.10
2022-11-16T12:26:34.934Z,9.10
2022-11-16T12:29:19.977Z,9.10
2022-11-16T12:32:32.775Z,9.10
2022-11-16T12:35:32.109Z,9.10
2022-11-16T12:38:15.984Z,9.10
2022-11-16T12:40:58.417Z,9.10
2022-11-16T12:43:35.993Z,9.10
2022-11-16T12:46:14.224Z,9.10
2022-11-16T12:49:10.922Z,9.10
2022-11-16T12:51:55.611Z,9.10
2022-11-16T12:55:25.524Z,9.10
2022-11-16T12:58:07.095Z,9.10
2022-11-16T13:00:50.615Z,9.10
2022-11-16T13:03:24.184Z,9.10
2022-11-16T13:06:01.701Z,9.10
2022-11-16T13:08:51.567Z,9.10
2022-11-16T13:11:25.921Z,9.10
2022-11-16T13:13:59.342Z,9.10
2022-11-16T13:16:29.038Z,9.10
2022-11-16T13:18:58.543Z,9.10
2022-11-16T13:21:32.811Z,9.10
2022-11-16T13:24:26.171Z,9.10
2022-11-16T13:26:58.428Z,9.10
2022-11-16T13:29:35.470Z,9.10
2022-11-16T13:32:10.549Z,9.10
2022-11-16T13:34:43.176Z,9.10
2022-11-16T13:37:43.673Z,9.10
2022-11-16T13:40:28.502Z,9.00
2022-11-16T13:43:18.134Z,9.00
2022-11-16T13:45:57.088Z,9.00
2022-11-16T13:48:30.715Z,9.00
2022-11-16T13:51:01.703Z,8.90
2022-11-16T13:56:28.382Z,8.90
2022-11-16T13:58:59.770Z,8.90
2022-11-16T14:01:56.205Z,8.80
2022-11-16T14:04:58.717Z,8.80
2022-11-16T14:07:35.317Z,8.90
2022-11-16T14:10:06.195Z,8.80
2022-11-16T14:12:52.845Z,8.80
2022-11-16T14:15:24.142Z,8.80
2022-11-16T14:17:54.614Z,8.80
2022-11-16T14:20:45.688Z,8.70
2022-11-16T14:23:25.363Z,8.80
2022-11-16T14:25:59.721Z,8.80
2022-11-16T14:28:50.237Z,8.80
2022-11-16T14:31:25.053Z,8.80
2022-11-16T14:33:55.942Z,8.70
2022-11-16T14:36:46.298Z,8.70
2022-11-16T14:39:37.341Z,8.70
2022-11-16T14:42:08.601Z,8.70
2022-11-16T14:44:41.074Z,8.70
2022-11-16T14:47:23.346Z,8.70
2022-11-16T14:49:52.144Z,8.70
2022-11-16T14:52:26.699Z,8.70
2022-11-16T14:55:01.874Z,8.70
2022-11-16T14:57:30.471Z,8.70
2022-11-16T15:00:10.639Z,8.60
2022-11-16T15:02:41.609Z,8.60
2022-11-16T15:05:18.854Z,8.60
2022-11-16T15:07:50.212Z,8.60
2022-11-16T15:10:21.572Z,8.60
2022-11-16T15:12:52.723Z,8.50
2022-11-16T15:15:24.490Z,8.50
2022-11-16T15:18:15.043Z,8.50
2022-11-16T15:20:50.611Z,8.50
2022-11-16T15:23:22.945Z,8.50
2022-11-16T15:25:56.982Z,8.50
2022-11-16T15:28:28.246Z,8.50
2022-11-16T15:30:59.537Z,8.40
2022-11-16T15:33:33.632Z,8.50
2022-11-16T15:36:03.404Z,8.40
2022-11-16T15:38:34.031Z,8.40
2022-11-16T15:41:05.288Z,8.40
2022-11-16T15:43:45.058Z,8.40
2022-11-16T15:46:26.314Z,8.40
2022-11-16T15:48:57.484Z,8.40
2022-11-16T15:51:28.270Z,8.40
2022-11-16T15:54:12.974Z,8.40
2022-11-16T15:56:42.751Z,8.40
2022-11-16T15:59:20.608Z,8.40
2022-11-16T16:01:50.546Z,8.40
2022-11-16T16:04:21.498Z,8.40
2022-11-16T16:06:52.094Z,8.40
2022-11-16T16:09:25.394Z,8.30
2022-11-16T16:11:55.242Z,8.40
2022-11-16T16:14:26.872Z,8.30
2022-11-16T16:16:58.493Z,8.30
2022-11-16T16:19:36.938Z,8.40
2022-11-16T16:22:13.625Z,8.40
2022-11-16T16:24:44.459Z,8.40
2022-11-16T16:27:18.743Z,8.40
2022-11-16T16:29:48.755Z,8.40
2022-11-16T16:32:26.769Z,8.40
2022-11-16T16:34:58.212Z,8.30
2022-11-16T16:37:28.210Z,8.30
2022-11-16T16:39:57.272Z,8.40
2022-11-16T16:42:26.672Z,8.30
2022-11-16T16:44:55.738Z,8.30
2022-11-16T16:47:24.562Z,8.30
2022-11-16T16:49:53.330Z,8.30
2022-11-16T16:52:27.925Z,8.30
2022-11-16T16:54:56.608Z,8.30
2022-11-16T16:57:25.502Z,8.30
2022-11-16T16:59:55.198Z,8.30
2022-11-16T17:02:25.700Z,8.30
2022-11-16T17:04:54.783Z,8.30
2022-11-16T17:07:25.253Z,8.30
2022-11-16T17:09:54.005Z,8.30
2022-11-16T17:12:23.173Z,8.30
2022-11-16T17:14:52.594Z,8.30
2022-11-16T17:17:21.850Z,8.20
2022-11-16T17:19:50.936Z,8.20
2022-11-16T17:22:20.741Z,8.20
2022-11-16T17:24:51.114Z,8.20
2022-11-16T17:27:19.714Z,8.20
2022-11-16T17:29:48.682Z,8.20
2022-11-16T17:32:17.394Z,8.20
2022-11-16T17:34:46.483Z,8.10
2022-11-16T17:37:15.143Z,8.10
2022-11-16T17:39:44.054Z,8.10
2022-11-16T17:42:14.163Z,8.10
2022-11-16T17:44:42.742Z,8.10
2022-11-16T17:47:11.523Z,8.20
2022-11-16T17:49:40.354Z,8.10
2022-11-16T17:52:09.225Z,8.10
2022-11-16T17:54:38.008Z,8.10
2022-11-16T17:57:06.934Z,8.10
2022-11-16T17:59:37.064Z,8.10
2022-11-16T18:02:05.908Z,8.10
2022-11-16T18:04:35.013Z,8.10
2022-11-16T18:07:03.843Z,8.10
2022-11-16T18:09:33.039Z,8.10
2022-11-16T18:12:02.645Z,8.00
2022-11-16T18:14:31.973Z,8.10
2022-11-16T18:17:02.273Z,8.10
2022-11-16T18:19:31.284Z,8.10
2022-11-16T18:22:00.414Z,8.00
2022-11-16T18:24:29.047Z,8.00
2022-11-16T18:26:58.073Z,7.90
2022-11-16T18:29:27.114Z,7.90
2022-11-16T18:31:56.433Z,7.90
2022-11-16T18:34:27.097Z,7.80
2022-11-16T18:36:56.354Z,7.90
2022-11-16T18:39:25.704Z,7.80
2022-11-16T18:41:55.402Z,7.80
2022-11-16T18:44:27.124Z,7.80
2022-11-16T18:46:56.205Z,7.80
2022-11-16T18:49:26.632Z,7.80
2022-11-16T18:51:55.660Z,7.80
2022-11-16T18:54:24.645Z,7.70
2022-11-16T18:56:54.052Z,7.70
2022-11-16T18:59:23.978Z,7.70
2022-11-16T19:01:52.634Z,7.70
2022-11-16T19:04:21.415Z,7.70
2022-11-16T19:06:51.739Z,7.70
2022-11-16T19:09:20.591Z,7.60
2022-11-16T19:11:51.257Z,7.60
2022-11-16T19:14:19.963Z,7.60
2022-11-16T19:16:55.682Z,7.60
2022-11-16T19:19:28.057Z,7.60
2022-11-16T19:22:00.873Z,7.50
2022-11-16T19:24:30.378Z,7.50
2022-11-16T19:26:59.450Z,7.50
2022-11-16T19:29:28.365Z,7.50
2022-11-16T19:31:56.913Z,7.50
2022-11-16T19:34:31.970Z,7.50
2022-11-16T19:37:03.979Z,7.50
2022-11-16T19:39:32.669Z,7.50
2022-11-16T19:42:01.903Z,7.40
2022-11-16T19:44:31.184Z,7.50
2022-11-16T19:47:00.172Z,7.40
2022-11-16T19:49:29.214Z,7.40
2022-11-16T19:51:59.626Z,7.40
2022-11-16T19:54:30.360Z,7.30
2022-11-16T19:56:59.651Z,7.30
2022-11-16T19:59:28.525Z,7.30
2022-11-16T20:01:57.442Z,7.30
2022-11-16T20:04:29.455Z,7.20
2022-11-16T20:06:58.316Z,7.20
2022-11-16T20:09:30.093Z,7.10
2022-11-16T20:12:02.990Z,7.10
2022-11-16T20:14:31.825Z,7.10
2022-11-16T20:17:01.195Z,7.00
2022-11-16T20:19:30.649Z,7.00
2022-11-16T20:22:00.155Z,7.00
2022-11-16T20:24:30.543Z,6.90
2022-11-16T20:26:59.899Z,6.90
2022-11-16T20:29:29.565Z,6.80
2022-11-16T20:31:58.151Z,6.80
2022-11-16T20:34:27.036Z,6.80
2022-11-16T20:36:56.219Z,6.80
2022-11-16T20:39:26.078Z,6.80
2022-11-16T20:41:56.101Z,6.80
2022-11-16T20:44:24.702Z,6.70
2022-11-16T20:46:53.451Z,6.70
2022-11-16T20:49:22.198Z,6.70
2022-11-16T20:51:51.616Z,6.70
2022-11-16T20:54:20.558Z,6.70
2022-11-16T20:56:50.566Z,6.70
2022-11-16T20:59:20.862Z,6.70
2022-11-16T21:01:53.611Z,6.70
2022-11-16T21:04:22.139Z,6.70
2022-11-16T21:06:50.772Z,6.70
2022-11-16T21:09:23.062Z,6.70
2022-11-16T21:12:09.595Z,6.70
2022-11-16T21:14:39.535Z,6.70
2022-11-16T21:17:08.287Z,6.80
2022-11-16T21:19:36.809Z,6.80
2022-11-16T21:22:05.503Z,6.70
2022-11-16T21:24:34.902Z,6.70
2022-11-16T21:27:03.676Z,6.70
2022-11-16T21:29:35.722Z,6.70
2022-11-16T21:32:05.924Z,6.70
2022-11-16T21:34:39.834Z,6.70
2022-11-16T21:37:08.693Z,6.70
2022-11-16T21:39:37.119Z,6.70
2022-11-16T21:42:06.217Z,6.70
2022-11-16T21:44:42.072Z,6.80
2022-11-16T21:47:12.493Z,6.80
2022-11-16T21:50:02.405Z,6.70
2022-11-16T21:52:29.830Z,6.70
2022-11-16T21:55:00.543Z,6.70
2022-11-16T21:57:28.978Z,6.70
2022-11-16T21:59:57.777Z,6.70
2022-11-16T22:02:27.663Z,6.70
2022-11-16T22:05:27.959Z,6.70
2022-11-16T22:07:56.534Z,6.80
2022-11-16T22:10:25.109Z,6.70
2022-11-16T22:12:53.581Z,6.70
2022-11-16T22:15:22.152Z,6.70
2022-11-16T22:17:52.038Z,6.70
2022-11-16T22:20:21.071Z,6.70
2022-11-16T22:22:49.873Z,6.70
2022-11-16T22:25:18.741Z,6.70
2022-11-16T22:28:18.548Z,6.70
2022-11-16T22:30:38.081Z,6.60
2022-11-16T22:33:07.997Z,6.60
2022-11-16T22:35:38.462Z,6.60
2022-11-16T22:38:07.152Z,6.60
2022-11-16T22:40:35.651Z,6.60
2022-11-16T22:43:04.360Z,6.60
2022-11-16T22:45:32.863Z,6.60
2022-11-16T22:48:01.441Z,6.60
2022-11-16T22:50:31.538Z,6.60
2022-11-16T22:53:00.399Z,6.60
2022-11-16T22:55:28.923Z,6.60
2022-11-16T22:57:57.671Z,6.60
2022-11-16T23:00:26.285Z,6.50
2022-11-16T23:02:54.841Z,6.50
2022-11-16T23:05:23.485Z,6.50
2022-11-16T23:07:56.588Z,6.50
2022-11-16T23:10:25.096Z,6.40
2022-11-16T23:13:11.880Z,6.40
2022-11-16T23:15:52.313Z,6.40
2022-11-16T23:18:20.970Z,6.40
2022-11-16T23:21:06.822Z,6.40
2022-11-16T23:24:05.763Z,6.40
2022-11-16T23:26:51.633Z,6.30
2022-11-16T23:29:22.945Z,6.40
2022-11-16T23:31:51.433Z,6.40
2022-11-16T23:34:20.541Z,6.30
2022-11-16T23:36:49.030Z,6.30
2022-11-16T23:39:19.348Z,6.30
2022-11-16T23:42:05.058Z,6.30
2022-11-16T23:44:33.574Z,6.30
2022-11-16T23:47:02.122Z,6.30
2022-11-16T23:49:30.591Z,6.30
2022-11-16T23:51:59.108Z,6.30
2022-11-16T23:54:29.020Z,6.20
2022-11-16T23:56:58.453Z,6.20
2022-11-16T23:59:27.164Z,6.20
